createdAt,value
2022-12-17T00:01:21.178Z,2.88
2022-12-17T00:04:07.497Z,3.02
2022-12-17T00:06:53.743Z,3.07
2022-12-17T00:09:47.118Z,3.01
2022-12-17T00:12:36.077Z,2.79
2022-12-17T00:15:21.608Z,2.78
2022-12-17T00:18:08.851Z,2.59
2022-12-17T00:20:55.741Z,2.26
2022-12-17T00:23:42.534Z,2.62
2022-12-17T00:26:28.632Z,2.83
2022-12-17T00:29:13.656Z,3.03
2022-12-17T00:31:59.751Z,3.03
2022-12-17T00:34:47.318Z,2.94
2022-12-17T00:37:33.143Z,2.73
2022-12-17T00:40:19.257Z,2.88
2022-12-17T00:43:05.148Z,2.69
2022-12-17T00:45:50.987Z,2.78
2022-12-17T00:48:38.496Z,2.68
2022-12-17T00:51:25.444Z,2.60
2022-12-17T00:54:11.512Z,2.58
2022-12-17T00:56:57.772Z,2.35
2022-12-17T00:59:43.731Z,2.78
2022-12-17T01:02:29.729Z,3.03
2022-12-17T01:05:15.853Z,2.91
2022-12-17T01:08:03.436Z,2.97
2022-12-17T01:10:49.261Z,2.90
2022-12-17T01:13:36.056Z,2.43
2022-12-17T01:16:23.759Z,2.62
2022-12-17T01:19:10.276Z,2.75
2022-12-17T01:21:56.784Z,2.58
2022-12-17T01:24:44.854Z,0.73
2022-12-17T01:27:30.978Z,0.93
2022-12-17T01:30:17.085Z,1.28
2022-12-17T01:33:03.375Z,1.72
2022-12-17T01:35:49.489Z,1.38
2022-12-17T01:38:38.008Z,2.06
2022-12-17T01:41:25.475Z,1.50
2022-12-17T01:44:11.543Z,1.91
2022-12-17T01:47:02.793Z,2.39
2022-12-17T01:49:49.196Z,2.46
2022-12-17T01:52:35.870Z,2.15
2022-12-17T01:55:22.609Z,2.08
2022-12-17T01:58:10.277Z,2.48
2022-12-17T02:00:56.368Z,2.63
2022-12-17T02:03:42.490Z,1.72
2022-12-17T02:06:35.179Z,1.79
2022-12-17T02:09:30.064Z,2.17
2022-12-17T02:12:25.515Z,2.73
2022-12-17T02:15:29.439Z,2.44
2022-12-17T02:18:19.455Z,2.03
2022-12-17T02:21:07.337Z,2.17
2022-12-17T02:24:01.083Z,1.70
2022-12-17T02:26:54.559Z,1.88
2022-12-17T02:29:53.818Z,1.98
2022-12-17T02:32:44.220Z,2.62
2022-12-17T02:35:33.918Z,2.89
2022-12-17T02:38:25.255Z,2.99
2022-12-17T02:41:11.269Z,3.09
2022-12-17T02:43:58.606Z,2.48
2022-12-17T02:46:44.539Z,2.48
2022-12-17T02:49:30.319Z,2.34
2022-12-17T02:52:12.910Z,2.40
2022-12-17T02:54:59.094Z,2.68
2022-12-17T02:57:50.878Z,3.06
2022-12-17T03:00:41.179Z,3.02
2022-12-17T03:03:27.273Z,3.09
2022-12-17T03:06:13.481Z,3.01
2022-12-17T03:08:55.899Z,3.04
2022-12-17T03:11:46.204Z,1.69
2022-12-17T03:14:37.387Z,2.24
2022-12-17T03:17:24.522Z,2.59
2022-12-17T03:20:10.354Z,2.14
2022-12-17T03:22:52.774Z,2.42
2022-12-17T03:25:38.964Z,2.33
2022-12-17T03:28:25.864Z,2.51
2022-12-17T03:31:11.995Z,2.86
2022-12-17T03:33:59.549Z,2.77
2022-12-17T03:36:45.537Z,2.98
2022-12-17T03:39:31.523Z,3.05
2022-12-17T03:42:17.963Z,2.67
2022-12-17T03:45:03.823Z,2.17
2022-12-17T03:47:50.000Z,1.81
2022-12-17T03:50:37.380Z,1.81
2022-12-17T03:53:24.164Z,1.47
2022-12-17T03:56:10.116Z,2.41
2022-12-17T03:58:55.964Z,2.34
2022-12-17T04:01:41.847Z,2.04
2022-12-17T04:04:27.966Z,2.77
2022-12-17T04:07:15.521Z,2.97
2022-12-17T04:10:12.872Z,3.09
2022-12-17T04:12:58.871Z,3.05
2022-12-17T04:15:46.570Z,2.66
2022-12-17T04:18:32.713Z,2.99
2022-12-17T04:21:18.831Z,2.94
2022-12-17T04:24:06.312Z,3.12
2022-12-17T04:26:52.015Z,2.39
2022-12-17T04:29:38.647Z,1.60
2022-12-17T04:32:24.332Z,2.63
2022-12-17T04:35:10.468Z,2.82
2022-12-17T04:37:56.400Z,2.54
2022-12-17T04:40:43.854Z,2.60
2022-12-17T04:43:32.477Z,2.92
2022-12-17T04:46:18.952Z,2.60
2022-12-17T04:49:05.104Z,2.91
2022-12-17T04:51:51.290Z,3.15
2022-12-17T04:54:37.163Z,3.08
2022-12-17T04:57:24.249Z,2.19
2022-12-17T05:00:10.352Z,1.94
2022-12-17T05:02:56.416Z,1.82
2022-12-17T05:05:42.481Z,0.78
2022-12-17T05:08:28.485Z,2.15
2022-12-17T05:11:14.499Z,2.02
2022-12-17T05:14:01.896Z,1.11
2022-12-17T05:16:48.110Z,0.82
2022-12-17T05:19:33.931Z,1.56
2022-12-17T05:22:19.835Z,0.72
2022-12-17T05:25:06.049Z,1.87
2022-12-17T05:27:51.703Z,2.18
2022-12-17T05:30:38.912Z,1.87
2022-12-17T05:33:24.773Z,2.45
2022-12-17T05:36:10.686Z,2.82
2022-12-17T05:38:56.773Z,3.05
2022-12-17T05:41:42.858Z,3.09
2022-12-17T05:44:28.706Z,3.13
2022-12-17T05:47:16.073Z,2.96
2022-12-17T05:50:01.914Z,2.56
2022-12-17T05:52:48.261Z,2.52
2022-12-17T05:55:34.289Z,2.97
2022-12-17T05:58:24.728Z,3.14
2022-12-17T06:01:14.700Z,2.59
2022-12-17T06:04:02.040Z,2.29
2022-12-17T06:06:56.873Z,2.78
2022-12-17T06:09:42.871Z,3.07
2022-12-17T06:12:40.416Z,3.22
2022-12-17T06:15:27.087Z,2.88
2022-12-17T06:18:16.897Z,2.83
2022-12-17T06:21:04.612Z,2.47
2022-12-17T06:23:50.394Z,2.80
2022-12-17T06:26:36.393Z,3.03
2022-12-17T06:29:22.435Z,2.73
2022-12-17T06:32:19.726Z,2.47
2022-12-17T06:35:06.019Z,2.25
2022-12-17T06:37:53.537Z,2.60
2022-12-17T06:40:39.408Z,2.56
2022-12-17T06:43:25.211Z,3.00
2022-12-17T06:46:11.448Z,3.05
2022-12-17T06:48:57.166Z,3.03
2022-12-17T06:51:43.286Z,3.04
2022-12-17T06:54:30.748Z,2.39
2022-12-17T06:57:16.590Z,2.77
2022-12-17T07:00:02.685Z,2.76
2022-12-17T07:02:48.888Z,2.91
2022-12-17T07:05:35.036Z,2.81
2022-12-17T07:08:21.156Z,1.91
2022-12-17T07:11:08.730Z,2.13
2022-12-17T07:13:54.618Z,2.23
2022-12-17T07:16:40.524Z,1.59
2022-12-17T07:19:27.710Z,2.23
2022-12-17T07:22:14.361Z,1.81
2022-12-17T07:25:00.561Z,0.57
2022-12-17T07:27:47.866Z,2.08
2022-12-17T07:30:33.904Z,2.58
2022-12-17T07:33:21.385Z,2.00
2022-12-17T07:36:07.226Z,1.82
2022-12-17T07:38:53.515Z,2.06
2022-12-17T07:41:39.608Z,0.65
2022-12-17T07:44:27.202Z,1.28
2022-12-17T07:47:13.447Z,0.94
2022-12-17T07:49:59.138Z,2.27
2022-12-17T07:52:45.005Z,1.62
2022-12-17T07:55:31.009Z,1.67
2022-12-17T07:58:18.139Z,1.18
2022-12-17T08:01:05.588Z,1.29
2022-12-17T08:03:51.430Z,1.78
2022-12-17T08:06:37.369Z,0.67
2022-12-17T08:09:23.869Z,-0.22
2022-12-17T08:12:24.243Z,0.98
2022-12-17T08:15:10.505Z,2.07
2022-12-17T08:17:57.748Z,1.22
2022-12-17T08:20:43.973Z,1.05
2022-12-17T08:23:26.464Z,-0.38
2022-12-17T08:26:12.303Z,1.90
2022-12-17T08:28:58.531Z,1.29
2022-12-17T08:31:44.832Z,1.04
2022-12-17T08:34:32.256Z,1.35
2022-12-17T08:37:18.465Z,0.91
2022-12-17T08:40:04.327Z,1.04
2022-12-17T08:42:50.041Z,0.70
2022-12-17T08:45:36.240Z,1.94
2022-12-17T08:48:32.218Z,1.39
2022-12-17T08:51:19.512Z,0.99
2022-12-17T08:54:05.581Z,1.38
2022-12-17T08:56:51.384Z,0.52
2022-12-17T08:59:46.704Z,1.45
2022-12-17T09:02:33.018Z,1.72
2022-12-17T09:05:18.871Z,0.67
2022-12-17T09:08:06.118Z,0.19
2022-12-17T09:10:52.175Z,1.59
2022-12-17T09:13:38.431Z,0.04
2022-12-17T09:16:25.380Z,0.64
2022-12-17T09:19:20.048Z,1.74
2022-12-17T09:22:06.340Z,1.35
2022-12-17T09:24:53.739Z,0.89
2022-12-17T09:27:39.623Z,2.09
2022-12-17T09:30:26.871Z,2.30
2022-12-17T09:33:12.663Z,2.25
2022-12-17T09:35:58.364Z,1.65
2022-12-17T09:38:44.595Z,-0.10
2022-12-17T09:41:43.674Z,0.68
2022-12-17T09:44:38.973Z,1.46
2022-12-17T09:47:39.079Z,1.83
2022-12-17T09:50:31.836Z,1.56
2022-12-17T09:53:20.952Z,-0.80
2022-12-17T09:56:09.559Z,0.02
2022-12-17T09:58:58.987Z,-0.06
2022-12-17T10:01:51.087Z,1.21
2022-12-17T10:04:51.416Z,2.07
2022-12-17T10:07:42.262Z,2.55
2022-12-17T10:10:36.664Z,2.36
2022-12-17T10:13:29.255Z,2.75
2022-12-17T10:16:17.178Z,2.15
2022-12-17T10:19:04.417Z,2.71
2022-12-17T10:21:52.805Z,2.37
2022-12-17T10:24:39.086Z,-0.19
2022-12-17T10:27:28.871Z,0.54
2022-12-17T10:30:15.076Z,1.42
2022-12-17T10:33:02.210Z,0.94
2022-12-17T10:35:55.493Z,0.19
2022-12-17T10:38:43.655Z,1.33
2022-12-17T10:41:41.075Z,1.38
2022-12-17T10:44:41.629Z,0.95
2022-12-17T10:47:31.029Z,1.79
2022-12-17T10:50:20.299Z,2.36
2022-12-17T10:53:07.521Z,2.28
2022-12-17T10:55:54.904Z,1.51
2022-12-17T10:58:44.471Z,1.28
2022-12-17T11:01:36.909Z,1.22
2022-12-17T11:04:40.762Z,1.78
2022-12-17T11:07:31.155Z,2.26
2022-12-17T11:10:19.833Z,2.56
2022-12-17T11:13:10.116Z,0.26
2022-12-17T11:15:59.684Z,-1.28
2022-12-17T11:18:51.286Z,-1.11
2022-12-17T11:21:41.846Z,-0.06
2022-12-17T11:24:48.063Z,-0.47
2022-12-17T11:27:39.958Z,0.31
2022-12-17T11:30:39.749Z,0.45
2022-12-17T11:33:35.125Z,-0.51
2022-12-17T11:36:38.479Z,0.88
2022-12-17T11:39:42.958Z,1.61
2022-12-17T11:42:42.639Z,0.61
2022-12-17T11:45:41.234Z,0.53
2022-12-17T11:48:34.202Z,0.90
2022-12-17T11:51:29.527Z,1.47
2022-12-17T11:54:24.195Z,0.86
2022-12-17T11:57:15.278Z,0.97
2022-12-17T12:00:08.544Z,2.10
2022-12-17T12:03:10.168Z,2.00
2022-12-17T12:06:05.780Z,2.05
2022-12-17T12:08:59.377Z,1.00
2022-12-17T12:11:54.354Z,1.50
2022-12-17T12:14:53.373Z,0.49
2022-12-17T12:17:56.313Z,0.25
2022-12-17T12:20:53.057Z,-0.34
2022-12-17T12:23:56.098Z,-1.51
2022-12-17T12:26:45.664Z,0.61
2022-12-17T12:29:43.402Z,2.11
2022-12-17T12:35:48.633Z,0.06
2022-12-17T12:38:50.866Z,1.46
2022-12-17T12:41:45.343Z,1.98
2022-12-17T12:44:39.705Z,1.44
2022-12-17T12:51:09.998Z,-0.23
2022-12-17T12:53:58.522Z,0.95
2022-12-17T12:56:47.010Z,1.52
2022-12-17T12:59:44.353Z,1.06
2022-12-17T13:02:46.936Z,1.09
2022-12-17T13:05:33.544Z,1.29
2022-12-17T13:08:23.969Z,1.35
2022-12-17T13:10:54.370Z,-0.66
2022-12-17T13:13:36.773Z,-1.04
2022-12-17T13:16:22.871Z,0.41
2022-12-17T13:19:01.955Z,1.57
2022-12-17T13:21:32.648Z,1.94
2022-12-17T13:24:15.492Z,2.28
2022-12-17T13:26:47.708Z,1.49
2022-12-17T13:29:25.721Z,1.48
2022-12-17T13:32:04.896Z,1.85
2022-12-17T13:34:55.536Z,1.23
2022-12-17T13:37:34.100Z,1.20
2022-12-17T13:40:20.759Z,1.64
2022-12-17T13:42:50.407Z,0.99
2022-12-17T13:45:22.262Z,0.42
2022-12-17T13:47:56.268Z,1.36
2022-12-17T13:50:35.862Z,1.24
2022-12-17T13:53:12.912Z,1.07
2022-12-17T13:55:50.774Z,1.77
2022-12-17T13:58:28.903Z,1.26
2022-12-17T14:01:09.199Z,0.64
2022-12-17T14:04:05.040Z,0.90
2022-12-17T14:06:35.799Z,1.36
2022-12-17T14:09:05.488Z,2.00
2022-12-17T14:11:56.381Z,1.95
2022-12-17T14:14:31.726Z,1.73
2022-12-17T14:17:04.023Z,0.58
2022-12-17T14:19:34.849Z,0.93
2022-12-17T14:22:04.140Z,1.39
2022-12-17T14:24:32.940Z,1.78
2022-12-17T14:27:03.338Z,1.59
2022-12-17T14:29:33.708Z,1.84
2022-12-17T14:32:22.471Z,1.75
2022-12-17T14:34:54.615Z,1.50
2022-12-17T14:37:28.046Z,1.13
2022-12-17T14:40:01.866Z,1.33
2022-12-17T14:42:36.365Z,1.76
2022-12-17T14:45:11.395Z,1.93
2022-12-17T14:47:40.402Z,1.86
2022-12-17T14:50:26.483Z,2.02
2022-12-17T14:52:58.430Z,1.62
2022-12-17T14:55:34.069Z,1.45
2022-12-17T14:58:25.241Z,1.77
2022-12-17T15:00:57.659Z,1.34
2022-12-17T15:03:29.574Z,1.84
2022-12-17T15:06:02.364Z,1.84
2022-12-17T15:08:35.321Z,1.61
2022-12-17T15:11:05.890Z,1.56
2022-12-17T15:13:36.090Z,1.45
2022-12-17T15:16:06.616Z,1.48
2022-12-17T15:18:35.811Z,1.49
2022-12-17T15:21:05.840Z,1.54
2022-12-17T15:23:34.691Z,1.79
2022-12-17T15:26:04.228Z,1.87
2022-12-17T15:28:33.563Z,2.05
2022-12-17T15:31:03.788Z,2.04
2022-12-17T15:33:32.843Z,2.01
2022-12-17T15:36:02.027Z,2.02
2022-12-17T15:38:30.887Z,2.09
2022-12-17T15:41:22.339Z,2.07
2022-12-17T15:43:50.316Z,1.94
2022-12-17T15:46:20.919Z,2.05
2022-12-17T15:48:50.742Z,2.01
2022-12-17T15:51:23.795Z,2.05
2022-12-17T15:53:53.004Z,2.00
2022-12-17T15:56:24.673Z,1.92
2022-12-17T15:58:53.429Z,1.94
2022-12-17T16:01:25.050Z,1.96
2022-12-17T16:03:54.230Z,1.87
2022-12-17T16:06:23.296Z,1.93
2022-12-17T16:08:52.005Z,1.86
2022-12-17T16:11:22.077Z,1.90
2022-12-17T16:13:56.613Z,1.87
2022-12-17T16:16:27.002Z,1.96
2022-12-17T16:18:56.261Z,1.87
2022-12-17T16:21:26.029Z,1.89
2022-12-17T16:23:54.687Z,1.94
2022-12-17T16:26:23.340Z,1.69
2022-12-17T16:28:52.131Z,1.70
2022-12-17T16:31:22.140Z,1.89
2022-12-17T16:33:52.863Z,1.82
2022-12-17T16:36:24.073Z,1.72
2022-12-17T16:38:55.754Z,1.65
2022-12-17T16:41:24.814Z,1.67
2022-12-17T16:43:53.503Z,1.68
2022-12-17T16:46:27.729Z,1.67
2022-12-17T16:48:59.621Z,1.71
2022-12-17T16:51:29.808Z,1.54
2022-12-17T16:54:00.464Z,1.68
2022-12-17T16:56:38.007Z,1.79
2022-12-17T16:59:09.528Z,1.72
2022-12-17T17:01:39.386Z,1.74
2022-12-17T17:04:11.079Z,1.77
2022-12-17T17:06:42.090Z,1.79
2022-12-17T17:09:11.242Z,1.74
2022-12-17T17:11:43.901Z,1.80
2022-12-17T17:14:14.647Z,1.74
2022-12-17T17:16:43.374Z,1.73
2022-12-17T17:19:15.220Z,1.77
2022-12-17T17:21:49.931Z,1.69
2022-12-17T17:24:22.081Z,1.71
2022-12-17T17:26:52.377Z,1.69
2022-12-17T17:29:22.565Z,1.70
2022-12-17T17:34:42.305Z,1.62
2022-12-17T17:37:11.859Z,1.63
2022-12-17T17:39:40.799Z,1.58
2022-12-17T17:42:09.947Z,1.59
2022-12-17T17:44:39.092Z,1.56
2022-12-17T17:47:08.036Z,1.55
2022-12-17T17:49:38.209Z,1.55
2022-12-17T17:52:10.011Z,1.57
2022-12-17T17:54:40.439Z,1.59
2022-12-17T17:57:10.118Z,1.56
2022-12-17T17:59:39.875Z,1.53
2022-12-17T18:02:09.948Z,1.54
2022-12-17T18:04:39.867Z,1.47
2022-12-17T18:07:27.300Z,1.54
2022-12-17T18:09:56.791Z,1.50
2022-12-17T18:12:43.351Z,1.47
2022-12-17T18:15:14.879Z,1.47
2022-12-17T18:17:44.536Z,1.52
2022-12-17T18:20:13.953Z,1.51
2022-12-17T18:22:46.633Z,1.52
2022-12-17T18:25:16.285Z,1.45
2022-12-17T18:27:45.149Z,1.45
2022-12-17T18:30:16.533Z,1.39
2022-12-17T18:32:46.955Z,1.40
2022-12-17T18:35:15.669Z,1.46
2022-12-17T18:37:45.807Z,1.43
2022-12-17T18:40:14.525Z,1.47
2022-12-17T18:43:00.618Z,1.37
2022-12-17T18:45:30.310Z,1.28
2022-12-17T18:47:59.115Z,1.32
2022-12-17T18:50:27.890Z,1.43
2022-12-17T18:52:58.139Z,1.42
2022-12-17T18:55:26.889Z,1.36
2022-12-17T18:57:55.769Z,1.31
2022-12-17T19:00:24.567Z,1.28
2022-12-17T19:02:53.561Z,1.30
2022-12-17T19:05:22.295Z,1.32
2022-12-17T19:07:51.113Z,1.28
2022-12-17T19:10:21.519Z,1.25
2022-12-17T19:12:52.851Z,1.26
2022-12-17T19:15:21.801Z,1.22
2022-12-17T19:17:51.212Z,1.23
2022-12-17T19:20:20.534Z,1.32
2022-12-17T19:22:49.489Z,1.23
2022-12-17T19:25:18.421Z,1.22
2022-12-17T19:27:49.087Z,1.20
2022-12-17T19:30:18.624Z,1.21
2022-12-17T19:32:47.454Z,1.22
2022-12-17T19:35:17.260Z,1.25
2022-12-17T19:37:47.938Z,1.18
2022-12-17T19:40:16.839Z,1.23
2022-12-17T19:42:47.445Z,1.16
2022-12-17T19:45:16.376Z,1.16
2022-12-17T19:47:45.269Z,1.15
2022-12-17T19:50:14.538Z,1.08
2022-12-17T19:52:43.593Z,1.09
2022-12-17T19:55:12.865Z,1.09
2022-12-17T19:57:41.785Z,1.12
2022-12-17T20:00:15.069Z,1.14
2022-12-17T20:02:43.897Z,1.12
2022-12-17T20:05:12.974Z,1.09
2022-12-17T20:07:41.994Z,1.09
2022-12-17T20:10:11.320Z,1.02
2022-12-17T20:12:40.203Z,1.10
2022-12-17T20:15:09.596Z,1.07
2022-12-17T20:17:39.848Z,1.02
2022-12-17T20:20:09.917Z,1.02
2022-12-17T20:22:38.992Z,1.12
2022-12-17T20:25:11.441Z,1.06
2022-12-17T20:27:41.341Z,1.04
2022-12-17T20:30:11.215Z,1.01
2022-12-17T20:32:41.502Z,1.05
2022-12-17T20:35:10.885Z,0.96
2022-12-17T20:37:39.891Z,0.79
2022-12-17T20:40:11.124Z,0.84
2022-12-17T20:42:40.241Z,0.90
2022-12-17T20:45:10.203Z,0.93
2022-12-17T20:47:40.517Z,0.96
2022-12-17T20:50:10.958Z,1.00
2022-12-17T20:52:40.139Z,1.03
2022-12-17T20:55:10.174Z,0.96
2022-12-17T20:57:42.322Z,1.00
2022-12-17T21:00:12.597Z,0.78
2022-12-17T21:02:43.437Z,0.80
2022-12-17T21:05:13.217Z,0.79
2022-12-17T21:07:42.266Z,0.83
2022-12-17T21:10:11.364Z,0.77
2022-12-17T21:12:58.579Z,0.68
2022-12-17T21:15:29.133Z,0.57
2022-12-17T21:17:59.694Z,0.70
2022-12-17T21:20:29.075Z,0.80
2022-12-17T21:22:58.812Z,0.53
2022-12-17T21:25:28.127Z,0.66
2022-12-17T21:27:57.191Z,0.75
2022-12-17T21:30:26.112Z,0.77
2022-12-17T21:33:00.615Z,0.74
2022-12-17T21:35:29.673Z,0.63
2022-12-17T21:37:59.875Z,0.78
2022-12-17T21:40:28.792Z,0.82
2022-12-17T21:43:03.770Z,0.79
2022-12-17T21:45:38.073Z,0.76
2022-12-17T21:48:11.865Z,0.77
2022-12-17T21:50:45.345Z,0.74
2022-12-17T21:53:15.124Z,0.73
2022-12-17T21:55:44.304Z,0.75
2022-12-17T21:58:15.695Z,0.63
2022-12-17T22:00:44.590Z,0.74
2022-12-17T22:03:15.723Z,0.83
2022-12-17T22:05:45.076Z,0.78
2022-12-17T22:08:13.986Z,0.73
2022-12-17T22:10:47.215Z,0.72
2022-12-17T22:13:38.829Z,0.66
2022-12-17T22:16:08.825Z,0.70
2022-12-17T22:18:39.478Z,0.68
2022-12-17T22:21:08.840Z,0.68
2022-12-17T22:23:37.789Z,0.67
2022-12-17T22:26:11.260Z,0.76
2022-12-17T22:28:40.509Z,0.72
2022-12-17T22:31:30.796Z,0.69
2022-12-17T22:34:17.864Z,0.81
2022-12-17T22:37:28.538Z,0.66
2022-12-17T22:41:11.073Z,0.65
2022-12-17T22:44:42.775Z,0.63
2022-12-17T22:45:35.044Z,0.56
2022-12-17T22:48:03.793Z,0.61
2022-12-17T22:50:35.936Z,0.69
2022-12-17T22:53:13.458Z,0.58
2022-12-17T22:55:42.553Z,0.54
2022-12-17T22:58:11.826Z,0.70
2022-12-17T23:00:41.571Z,0.61
2022-12-17T23:03:10.864Z,0.59
2022-12-17T23:05:43.066Z,0.57
2022-12-17T23:08:11.785Z,0.57
2022-12-17T23:10:40.480Z,0.53
2022-12-17T23:13:09.430Z,0.56
2022-12-17T23:15:39.445Z,0.58
2022-12-17T23:18:09.572Z,0.56
2022-12-17T23:20:41.032Z,0.47
2022-12-17T23:23:09.689Z,0.49
2022-12-17T23:25:38.357Z,0.45
2022-12-17T23:28:07.645Z,0.51
2022-12-17T23:30:38.648Z,0.49
2022-12-17T23:33:07.475Z,0.57
2022-12-17T23:35:36.974Z,0.53
2022-12-17T23:38:07.159Z,0.46
2022-12-17T23:40:35.929Z,0.39
2022-12-17T23:43:05.050Z,0.53
2022-12-17T23:45:33.766Z,0.50
2022-12-17T23:48:02.813Z,0.43
2022-12-17T23:50:31.567Z,0.38
2022-12-17T23:53:00.273Z,0.38
2022-12-17T23:55:30.513Z,0.30
2022-12-17T23:58:01.200Z,0.28
